Time;durP1;ratioP1;P1;durP2;ratioP2;P2;SDS_P1;SDS_P2;PMS_P1;PMS_P2;Temp;Humidity;BMP_temperature;BMP_pressure;BME280_temperature;BME280_humidity;BME280_pressure;Samples;Min_cycle;Max_cycle;Signal;HPM_P1;HPM_P2
2022/07/29 00:02:06;;;;;;;1.58;1.27;;;;;;;;;;4993557;28;95204;-70
2022/07/29 00:04:36;;;;;;;2.42;1.52;;;;;;;;;;4994917;28;93379;-70
2022/07/29 00:07:03;;;;;;;2.63;1.40;;;;;;;;;;4995084;28;92364;-70
2022/07/29 00:09:30;;;;;;;1.40;1.30;;;;;;;;;;4994600;28;93312;-70
2022/07/29 00:11:58;;;;;;;2.55;1.65;;;;;;;;;;4997195;28;93603;-70
2022/07/29 00:14:25;;;;;;;3.75;1.60;;;;;;;;;;4994751;28;93111;-69
2022/07/29 00:16:51;;;;;;;1.95;1.40;;;;;;;;;;4985873;28;93219;-69
2022/07/29 00:19:18;;;;;;;2.28;1.67;;;;;;;;;;4994214;28;92483;-70
2022/07/29 00:21:44;;;;;;;2.35;1.35;;;;;;;;;;4994263;28;92990;-69
2022/07/29 00:24:10;;;;;;;11.52;1.55;;;;;;;;;;4993984;28;96546;-69
2022/07/29 00:26:37;;;;;;;1.52;1.42;;;;;;;;;;4997750;28;92828;-69
2022/07/29 00:29:03;;;;;;;3.47;1.65;;;;;;;;;;4997245;28;93960;-69
2022/07/29 00:31:50;;;;;;;3.85;1.55;;;;;;;;;;4997881;28;93081;-69
2022/07/29 00:37:01;;;;;;;2.67;1.50;;;;;;;;;;4989367;28;93194;-70
2022/07/29 00:39:28;;;;;;;3.75;1.50;;;;;;;;;;4997881;28;92468;-70
2022/07/29 00:41:55;;;;;;;3.65;1.13;;;;;;;;;;4997488;28;93037;-70
2022/07/29 00:44:21;;;;;;;1.95;1.40;;;;;;;;;;4997433;28;94139;-69
2022/07/29 00:46:47;;;;;;;3.30;1.20;;;;;;;;;;4997686;28;92495;-70
2022/07/29 00:49:14;;;;;;;2.85;1.52;;;;;;;;;;4996619;28;94972;-69
2022/07/29 00:51:41;;;;;;;3.92;1.50;;;;;;;;;;4996447;28;93229;-69
2022/07/29 00:54:07;;;;;;;1.75;1.40;;;;;;;;;;5000595;28;92555;-70
2022/07/29 00:56:34;;;;;;;2.25;1.30;;;;;;;;;;4997630;28;93334;-70
2022/07/29 00:59:00;;;;;;;5.65;1.40;;;;;;;;;;4997251;28;92423;-72
2022/07/29 01:01:28;;;;;;;2.88;1.20;;;;;;;;;;4997998;28;93028;-69
2022/07/29 01:03:54;;;;;;;3.60;1.45;;;;;;;;;;4997306;28;93368;-70
2022/07/29 01:06:21;;;;;;;2.60;1.50;;;;;;;;;;4997383;28;91757;-70
2022/07/29 01:08:48;;;;;;;1.13;1.13;;;;;;;;;;4997929;28;92449;-70
2022/07/29 01:11:15;;;;;;;5.65;1.50;;;;;;;;;;4996779;28;93419;-69
2022/07/29 01:13:43;;;;;;;1.80;1.60;;;;;;;;;;4995396;28;94898;-70
2022/07/29 01:16:23;;;;;;;4.18;1.50;;;;;;;;;;5000746;28;95604;-70
2022/07/29 01:18:51;;;;;;;4.85;1.65;;;;;;;;;;4996604;28;93029;-69
2022/07/29 01:21:23;;;;;;;3.85;1.50;;;;;;;;;;4997690;28;94152;-69
2022/07/29 01:24:08;;;;;;;4.03;1.52;;;;;;;;;;4996920;28;93815;-70
2022/07/29 01:26:44;;;;;;;3.00;1.60;;;;;;;;;;4996312;28;93576;-69
2022/07/29 01:29:24;;;;;;;3.85;1.58;;;;;;;;;;4997286;28;93053;-69
2022/07/29 01:32:01;;;;;;;3.65;1.65;;;;;;;;;;4997561;28;91661;-69
2022/07/29 01:34:30;;;;;;;2.58;1.70;;;;;;;;;;4996314;28;92651;-69
2022/07/29 01:37:03;;;;;;;3.28;1.83;;;;;;;;;;4996898;28;92383;-69
2022/07/29 01:39:31;;;;;;;6.20;1.77;;;;;;;;;;4997503;28;95597;-70
2022/07/29 01:42:06;;;;;;;7.30;1.70;;;;;;;;;;4995972;28;95340;-69
2022/07/29 01:44:35;;;;;;;2.72;1.40;;;;;;;;;;4996562;28;93385;-69
2022/07/29 01:47:05;;;;;;;4.82;1.60;;;;;;;;;;4995985;28;92395;-70
2022/07/29 01:49:35;;;;;;;2.65;1.60;;;;;;;;;;4997338;28;92435;-69
2022/07/29 01:52:05;;;;;;;3.92;1.70;;;;;;;;;;4997210;28;93566;-69
2022/07/29 01:54:38;;;;;;;5.70;1.80;;;;;;;;;;4996024;28;92510;-69
2022/07/29 01:57:06;;;;;;;2.90;1.55;;;;;;;;;;4997315;28;92974;-69
2022/07/29 01:59:34;;;;;;;5.53;1.63;;;;;;;;;;4996182;28;93614;-69
2022/07/29 02:02:04;;;;;;;5.40;1.80;;;;;;;;;;4999285;28;92523;-69
2022/07/29 02:04:31;;;;;;;3.13;1.60;;;;;;;;;;4995055;28;95523;-69
2022/07/29 02:07:01;;;;;;;3.83;1.80;;;;;;;;;;4997055;28;92537;-68
2022/07/29 02:09:28;;;;;;;4.15;1.98;;;;;;;;;;4995306;28;93241;-69
2022/07/29 02:11:55;;;;;;;4.60;1.80;;;;;;;;;;4995897;28;92560;-69
2022/07/29 02:14:22;;;;;;;5.13;1.98;;;;;;;;;;4997129;28;92425;-69
2022/07/29 02:16:51;;;;;;;3.33;1.73;;;;;;;;;;4995565;28;93908;-69
2022/07/29 02:19:19;;;;;;;2.30;1.52;;;;;;;;;;4996244;28;93310;-69
2022/07/29 02:21:46;;;;;;;3.38;1.88;;;;;;;;;;4995810;28;91823;-69
2022/07/29 02:24:13;;;;;;;2.42;2.10;;;;;;;;;;4999418;28;92404;-69
2022/07/29 02:26:41;;;;;;;4.88;1.75;;;;;;;;;;4995790;28;92518;-70
2022/07/29 02:29:09;;;;;;;4.53;2.25;;;;;;;;;;4994566;28;94930;-70
2022/07/29 02:31:36;;;;;;;7.45;2.05;;;;;;;;;;4995348;28;93348;-69
2022/07/29 02:34:04;;;;;;;2.75;1.77;;;;;;;;;;4996890;28;92331;-70
2022/07/29 02:36:31;;;;;;;5.50;1.98;;;;;;;;;;4995960;28;92951;-69
2022/07/29 02:39:00;;;;;;;1.92;1.75;;;;;;;;;;4995930;28;93545;-70
2022/07/29 02:41:46;;;;;;;3.45;2.35;;;;;;;;;;4996386;28;92968;-70
2022/07/29 02:44:14;;;;;;;2.67;1.50;;;;;;;;;;4991530;28;93129;-69
2022/07/29 02:46:56;;;;;;;2.47;1.83;;;;;;;;;;4995217;28;92362;-70
2022/07/29 02:49:37;;;;;;;11.07;2.17;;;;;;;;;;4996634;28;92413;-70
2022/07/29 02:52:05;;;;;;;12.02;2.10;;;;;;;;;;4995290;28;93585;-69
2022/07/29 02:54:35;;;;;;;3.65;1.90;;;;;;;;;;4994136;28;94804;-69
2022/07/29 02:57:03;;;;;;;3.50;1.83;;;;;;;;;;4994737;28;96298;-69
2022/07/29 02:59:30;;;;;;;3.33;1.50;;;;;;;;;;4995327;28;93820;-69
2022/07/29 03:01:58;;;;;;;2.13;1.60;;;;;;;;;;4995425;28;92457;-69
2022/07/29 03:04:25;;;;;;;3.75;1.60;;;;;;;;;;4995685;27;93451;-69
2022/07/29 03:06:52;;;;;;;2.85;1.83;;;;;;;;;;4998071;28;93285;-69
2022/07/29 03:09:19;;;;;;;2.33;1.70;;;;;;;;;;4995505;28;92842;-69
2022/07/29 03:11:45;;;;;;;3.65;1.73;;;;;;;;;;4995137;28;92623;-69
2022/07/29 03:14:19;;;;;;;5.13;1.90;;;;;;;;;;4996006;28;92383;-69
2022/07/29 03:16:46;;;;;;;3.67;2.10;;;;;;;;;;4996238;28;93048;-69
2022/07/29 03:19:13;;;;;;;4.75;1.88;;;;;;;;;;4993303;28;95962;-69
2022/07/29 03:21:40;;;;;;;5.57;2.30;;;;;;;;;;4996040;28;92290;-69
2022/07/29 03:24:06;;;;;;;3.70;2.17;;;;;;;;;;4995782;28;92450;-69
2022/07/29 03:26:36;;;;;;;2.35;1.80;;;;;;;;;;4994377;28;93153;-69
2022/07/29 03:29:02;;;;;;;2.88;1.77;;;;;;;;;;4998749;28;92404;-69
2022/07/29 03:31:29;;;;;;;1.75;1.65;;;;;;;;;;4996017;28;93266;-70
2022/07/29 03:33:55;;;;;;;2.80;1.85;;;;;;;;;;4995310;28;92466;-69
2022/07/29 03:36:22;;;;;;;3.90;2.10;;;;;;;;;;4997384;28;92933;-69
2022/07/29 03:38:49;;;;;;;3.13;1.75;;;;;;;;;;4995646;28;93357;-69
2022/07/29 03:41:16;;;;;;;4.72;2.42;;;;;;;;;;4995228;28;93078;-69
2022/07/29 03:43:49;;;;;;;3.08;2.13;;;;;;;;;;4994110;28;94689;-69
2022/07/29 03:46:16;;;;;;;2.28;1.70;;;;;;;;;;4994647;28;93395;-69
2022/07/29 03:48:45;;;;;;;4.13;2.28;;;;;;;;;;4995312;28;92483;-69
2022/07/29 03:51:12;;;;;;;2.20;2.00;;;;;;;;;;4999004;27;93000;-69
2022/07/29 03:53:38;;;;;;;3.10;1.90;;;;;;;;;;4994035;28;92454;-70
2022/07/29 03:56:05;;;;;;;3.30;2.10;;;;;;;;;;4995534;28;93104;-69
2022/07/29 03:58:32;;;;;;;3.67;2.10;;;;;;;;;;4997326;28;94306;-70
2022/07/29 04:00:59;;;;;;;3.13;1.98;;;;;;;;;;5001705;28;91730;-69
2022/07/29 04:03:25;;;;;;;2.17;1.98;;;;;;;;;;5002301;28;92503;-69
2022/07/29 04:06:02;;;;;;;2.08;1.88;;;;;;;;;;5001370;28;93039;-70
2022/07/29 04:08:28;;;;;;;7.75;2.50;;;;;;;;;;4999850;28;94855;-70
2022/07/29 04:10:55;;;;;;;2.78;1.88;;;;;;;;;;5001320;28;95385;-70
2022/07/29 04:13:21;;;;;;;3.95;2.13;;;;;;;;;;5004612;28;93545;-70
2022/07/29 04:15:47;;;;;;;2.60;1.90;;;;;;;;;;5001854;27;93070;-70
2022/07/29 04:18:14;;;;;;;5.30;1.70;;;;;;;;;;5001773;28;93220;-70
2022/07/29 04:20:40;;;;;;;4.85;1.70;;;;;;;;;;5001341;28;93020;-70
2022/07/29 04:23:07;;;;;;;1.70;1.60;;;;;;;;;;5001149;28;93017;-69
2022/07/29 04:25:36;;;;;;;2.38;1.92;;;;;;;;;;5001761;28;92517;-70
2022/07/29 04:28:02;;;;;;;2.97;2.10;;;;;;;;;;5002126;28;92482;-70
2022/07/29 04:30:30;;;;;;;2.00;1.60;;;;;;;;;;5000758;28;93110;-70
2022/07/29 04:32:57;;;;;;;3.25;2.72;;;;;;;;;;4998940;28;96760;-70
2022/07/29 04:35:23;;;;;;;3.10;2.15;;;;;;;;;;5003624;28;92353;-70
2022/07/29 04:37:51;;;;;;;2.03;1.80;;;;;;;;;;5000997;28;92977;-70
2022/07/29 04:40:18;;;;;;;4.10;1.80;;;;;;;;;;5001051;28;92454;-70
2022/07/29 04:42:44;;;;;;;9.48;2.38;;;;;;;;;;5000723;28;92981;-70
2022/07/29 04:45:13;;;;;;;2.47;2.10;;;;;;;;;;5001889;28;93410;-70
2022/07/29 04:47:39;;;;;;;4.72;1.90;;;;;;;;;;5002499;27;92288;-70
2022/07/29 04:50:06;;;;;;;7.07;2.30;;;;;;;;;;5002029;28;93136;-70
2022/07/29 04:52:37;;;;;;;3.60;2.03;;;;;;;;;;5001280;28;93461;-70
2022/07/29 04:55:04;;;;;;;10.00;3.28;;;;;;;;;;5005518;27;92418;-70
2022/07/29 04:57:30;;;;;;;2.80;2.42;;;;;;;;;;4998841;28;95718;-70
2022/07/29 04:59:56;;;;;;;5.32;2.10;;;;;;;;;;5000910;28;92405;-70
2022/07/29 05:02:23;;;;;;;2.65;1.98;;;;;;;;;;5000845;28;94491;-70
2022/07/29 05:04:50;;;;;;;4.68;2.10;;;;;;;;;;5000213;28;94295;-70
2022/07/29 05:07:16;;;;;;;2.35;2.00;;;;;;;;;;5001468;28;92407;-69
2022/07/29 05:09:43;;;;;;;4.13;2.08;;;;;;;;;;4999610;28;93468;-70
2022/07/29 05:12:09;;;;;;;6.78;2.30;;;;;;;;;;4996904;28;94374;-70
2022/07/29 05:14:36;;;;;;;1.90;1.80;;;;;;;;;;4998200;28;91669;-70
2022/07/29 05:17:02;;;;;;;2.85;2.30;;;;;;;;;;5000557;28;93238;-70
2022/07/29 05:19:28;;;;;;;2.92;1.85;;;;;;;;;;4996645;28;92903;-70
2022/07/29 05:21:55;;;;;;;3.28;2.33;;;;;;;;;;4996056;28;94731;-70
2022/07/29 05:24:21;;;;;;;3.00;2.67;;;;;;;;;;4997765;28;93254;-70
2022/07/29 05:26:47;;;;;;;5.45;2.17;;;;;;;;;;4996894;28;92312;-70
2022/07/29 05:29:14;;;;;;;3.42;2.20;;;;;;;;;;4997977;28;93054;-70
2022/07/29 05:32:00;;;;;;;3.92;2.30;;;;;;;;;;4996936;28;94249;-70
2022/07/29 05:34:26;;;;;;;5.55;2.38;;;;;;;;;;4997512;28;92438;-70
2022/07/29 05:36:54;;;;;;;2.75;2.00;;;;;;;;;;4997148;28;92948;-70
2022/07/29 05:39:20;;;;;;;5.30;2.47;;;;;;;;;;5000536;28;93723;-71
2022/07/29 05:42:11;;;;;;;4.93;2.40;;;;;;;;;;4996681;28;92721;-70
2022/07/29 05:44:38;;;;;;;3.45;2.60;;;;;;;;;;4996780;28;94337;-71
2022/07/29 05:47:05;;;;;;;4.32;2.20;;;;;;;;;;4994005;28;95183;-70
2022/07/29 05:49:31;;;;;;;9.50;2.35;;;;;;;;;;4997245;28;96486;-70
2022/07/29 05:51:58;;;;;;;4.47;2.22;;;;;;;;;;4997141;28;93695;-70
2022/07/29 05:54:24;;;;;;;4.63;2.25;;;;;;;;;;4996817;28;92735;-70
2022/07/29 05:56:51;;;;;;;6.90;2.45;;;;;;;;;;4997840;28;93081;-70
2022/07/29 05:59:17;;;;;;;5.18;2.50;;;;;;;;;;4996848;28;94196;-70
2022/07/29 06:01:43;;;;;;;7.95;2.65;;;;;;;;;;4998950;28;92442;-70
2022/07/29 06:04:10;;;;;;;2.70;1.90;;;;;;;;;;4997613;28;93493;-70
2022/07/29 06:06:36;;;;;;;4.03;2.58;;;;;;;;;;4997644;28;92505;-70
2022/07/29 06:09:03;;;;;;;10.90;2.95;;;;;;;;;;4997856;28;93639;-70
2022/07/29 06:11:38;;;;;;;4.95;2.45;;;;;;;;;;4995433;28;95417;-70
2022/07/29 06:14:04;;;;;;;7.82;2.42;;;;;;;;;;4995592;28;92410;-70
2022/07/29 06:16:31;;;;;;;2.22;2.00;;;;;;;;;;4996877;28;92993;-70
2022/07/29 06:18:57;;;;;;;5.60;2.38;;;;;;;;;;4996521;28;93063;-70
2022/07/29 06:21:23;;;;;;;6.50;2.53;;;;;;;;;;4995584;28;92787;-70
2022/07/29 06:23:50;;;;;;;7.20;2.15;;;;;;;;;;4999183;28;92750;-70
2022/07/29 06:26:16;;;;;;;7.88;2.33;;;;;;;;;;4996631;28;92777;-70
2022/07/29 06:28:42;;;;;;;2.20;1.85;;;;;;;;;;4996403;28;93005;-70
2022/07/29 06:31:09;;;;;;;8.43;2.33;;;;;;;;;;4996801;28;93273;-70
2022/07/29 06:33:35;;;;;;;2.42;1.95;;;;;;;;;;4996358;28;92456;-70
2022/07/29 06:36:03;;;;;;;2.88;2.60;;;;;;;;;;4994277;28;94874;-70
2022/07/29 06:38:30;;;;;;;4.18;2.30;;;;;;;;;;4996553;28;93879;-71
2022/07/29 06:41:09;;;;;;;11.35;2.35;;;;;;;;;;4996176;28;92528;-70
2022/07/29 06:43:41;;;;;;;3.92;2.10;;;;;;;;;;4994630;28;93010;-70
2022/07/29 06:46:17;;;;;;;6.55;2.80;;;;;;;;;;4999569;28;93471;-70
2022/07/29 06:48:44;;;;;;;3.55;2.28;;;;;;;;;;4993545;28;92824;-70
2022/07/29 06:51:11;;;;;;;7.65;2.35;;;;;;;;;;4995721;28;93622;-70
2022/07/29 06:53:37;;;;;;;2.63;2.08;;;;;;;;;;4996945;28;91764;-70
2022/07/29 06:56:23;;;;;;;8.23;2.20;;;;;;;;;;4995515;28;92406;-70
2022/07/29 06:58:49;;;;;;;2.97;1.95;;;;;;;;;;4996060;28;93483;-70
2022/07/29 07:01:16;;;;;;;6.35;1.85;;;;;;;;;;4994505;28;94851;-71
2022/07/29 07:03:42;;;;;;;2.05;1.88;;;;;;;;;;4994887;28;95324;-71
2022/07/29 07:06:09;;;;;;;4.50;2.20;;;;;;;;;;4998960;28;93454;-70
2022/07/29 07:08:40;;;;;;;2.55;2.10;;;;;;;;;;4997189;27;93050;-70
2022/07/29 07:11:07;;;;;;;10.75;2.60;;;;;;;;;;4994954;28;93337;-70
2022/07/29 07:13:34;;;;;;;4.65;2.22;;;;;;;;;;4995510;28;92375;-71
2022/07/29 07:16:02;;;;;;;3.78;1.73;;;;;;;;;;4995512;28;93848;-68
2022/07/29 07:18:29;;;;;;;3.47;1.92;;;;;;;;;;4995480;28;93660;-68
2022/07/29 07:20:56;;;;;;;4.13;2.00;;;;;;;;;;4995563;28;93304;-69
2022/07/29 07:23:22;;;;;;;4.20;2.10;;;;;;;;;;4995785;28;93390;-69
2022/07/29 07:25:49;;;;;;;5.28;2.10;;;;;;;;;;4992819;28;95775;-70
2022/07/29 07:28:15;;;;;;;9.82;2.05;;;;;;;;;;4998620;28;92427;-70
2022/07/29 07:30:41;;;;;;;4.20;1.73;;;;;;;;;;4995197;28;92360;-70
2022/07/29 07:33:08;;;;;;;3.67;1.95;;;;;;;;;;4993827;28;92445;-70
2022/07/29 07:35:35;;;;;;;5.65;2.70;;;;;;;;;;4995607;28;94081;-70
2022/07/29 07:38:02;;;;;;;4.65;1.80;;;;;;;;;;4994997;28;93319;-70
2022/07/29 07:40:29;;;;;;;3.63;2.30;;;;;;;;;;4995263;28;92430;-70
2022/07/29 07:42:55;;;;;;;2.85;1.63;;;;;;;;;;4995669;28;94483;-70
2022/07/29 07:45:21;;;;;;;5.93;2.00;;;;;;;;;;4994733;28;93530;-70
2022/07/29 07:47:48;;;;;;;1.95;1.67;;;;;;;;;;4994932;28;92478;-69
2022/07/29 07:50:19;;;;;;;4.05;1.75;;;;;;;;;;4996890;28;94825;-69
2022/07/29 07:52:47;;;;;;;3.72;1.60;;;;;;;;;;4994113;28;92486;-69
2022/07/29 07:55:14;;;;;;;2.83;1.60;;;;;;;;;;4994642;28;93285;-70
2022/07/29 07:57:42;;;;;;;4.68;1.88;;;;;;;;;;4994940;28;93565;-70
2022/07/29 08:00:09;;;;;;;5.07;2.22;;;;;;;;;;4994694;28;92629;-70
2022/07/29 08:02:37;;;;;;;3.17;1.70;;;;;;;;;;4995744;28;92742;-70
2022/07/29 08:05:04;;;;;;;3.50;1.88;;;;;;;;;;4995154;28;93028;-69
2022/07/29 08:07:38;;;;;;;2.47;2.00;;;;;;;;;;4994940;28;91654;-69
2022/07/29 08:10:04;;;;;;;2.40;1.92;;;;;;;;;;4995178;28;93292;-70
2022/07/29 08:12:31;;;;;;;4.63;2.08;;;;;;;;;;4998460;28;94211;-70
2022/07/29 08:14:57;;;;;;;8.02;1.80;;;;;;;;;;4992588;28;95248;-70
2022/07/29 08:17:23;;;;;;;2.92;1.73;;;;;;;;;;4994652;28;94425;-70
2022/07/29 08:19:50;;;;;;;7.97;2.40;;;;;;;;;;4995129;28;92781;-70
2022/07/29 08:22:16;;;;;;;3.95;1.77;;;;;;;;;;4994378;28;94391;-70
2022/07/29 08:24:43;;;;;;;6.93;2.40;;;;;;;;;;4994822;28;94315;-70
2022/07/29 08:27:09;;;;;;;5.03;2.75;;;;;;;;;;4995217;28;92450;-69
2022/07/29 08:29:57;;;;;;;3.63;2.15;;;;;;;;;;4994634;28;92795;-69
2022/07/29 08:32:24;;;;;;;3.20;2.10;;;;;;;;;;4995245;28;92634;-69
2022/07/29 08:35:10;;;;;;;5.38;2.20;;;;;;;;;;4997382;28;92802;-69
2022/07/29 08:37:37;;;;;;;3.35;2.15;;;;;;;;;;4994970;28;93234;-69
2022/07/29 08:40:03;;;;;;;8.57;2.10;;;;;;;;;;4992360;28;95026;-69
2022/07/29 08:42:30;;;;;;;4.50;2.33;;;;;;;;;;4994489;28;95716;-70
2022/07/29 08:44:57;;;;;;;5.22;2.25;;;;;;;;;;4994270;28;93553;-70
2022/07/29 08:47:26;;;;;;;7.72;2.45;;;;;;;;;;4998095;28;92465;-70
2022/07/29 08:49:52;;;;;;;2.25;1.73;;;;;;;;;;4997213;28;93150;-70
2022/07/29 08:52:19;;;;;;;7.13;2.33;;;;;;;;;;4998136;28;93262;-70
2022/07/29 08:54:47;;;;;;;6.78;2.08;;;;;;;;;;4997564;28;92310;-71
2022/07/29 08:57:16;;;;;;;7.93;2.25;;;;;;;;;;5000448;28;92907;-71
2022/07/29 08:59:44;;;;;;;13.20;2.20;;;;;;;;;;4997578;28;92795;-71
2022/07/29 09:02:16;;;;;;;4.75;2.38;;;;;;;;;;4998211;28;93313;-70
2022/07/29 09:04:42;;;;;;;3.00;1.80;;;;;;;;;;4995522;28;95418;-70
2022/07/29 09:07:09;;;;;;;8.23;2.58;;;;;;;;;;4997573;28;92545;-70
2022/07/29 09:09:35;;;;;;;6.80;2.40;;;;;;;;;;4997539;28;93253;-70
2022/07/29 09:12:03;;;;;;;3.95;1.70;;;;;;;;;;4998189;28;94114;-70
2022/07/29 09:14:30;;;;;;;3.85;2.00;;;;;;;;;;4998213;28;92428;-70
2022/07/29 09:16:57;;;;;;;8.52;2.08;;;;;;;;;;4999808;28;93096;-70
2022/07/29 09:19:28;;;;;;;4.20;2.20;;;;;;;;;;4997919;28;92633;-70
2022/07/29 09:21:57;;;;;;;7.10;2.00;;;;;;;;;;4998202;28;91956;-70
2022/07/29 09:24:35;;;;;;;7.68;2.10;;;;;;;;;;4996764;28;93015;-70
2022/07/29 09:27:01;;;;;;;13.82;2.17;;;;;;;;;;4998027;28;92447;-69
2022/07/29 09:29:28;;;;;;;5.60;2.10;;;;;;;;;;4995762;28;94800;-70
2022/07/29 09:32:05;;;;;;;6.05;2.58;;;;;;;;;;4996704;28;93215;-70
2022/07/29 09:34:32;;;;;;;7.57;2.00;;;;;;;;;;4997557;28;92360;-70
2022/07/29 09:36:58;;;;;;;5.25;2.35;;;;;;;;;;4996929;28;92429;-70
2022/07/29 09:39:32;;;;;;;5.43;2.15;;;;;;;;;;4999614;28;93557;-70
2022/07/29 09:42:01;;;;;;;6.28;2.42;;;;;;;;;;4996862;28;93063;-70
2022/07/29 09:44:40;;;;;;;9.02;2.90;;;;;;;;;;4997540;28;93434;-70
2022/07/29 09:47:06;;;;;;;5.60;1.90;;;;;;;;;;4997043;28;91761;-71
2022/07/29 09:49:35;;;;;;;3.83;1.70;;;;;;;;;;4997549;28;92436;-70
2022/07/29 09:52:01;;;;;;;5.05;2.65;;;;;;;;;;4996491;28;93275;-70
2022/07/29 09:54:28;;;;;;;8.95;2.22;;;;;;;;;;4995965;28;94915;-70
2022/07/29 09:56:54;;;;;;;13.77;2.40;;;;;;;;;;4996517;28;95613;-70
2022/07/29 09:59:24;;;;;;;3.22;2.45;;;;;;;;;;4996090;28;93396;-70
2022/07/29 10:01:50;;;;;;;4.68;2.65;;;;;;;;;;4999369;28;92552;-70
2022/07/29 10:04:17;;;;;;;10.70;2.72;;;;;;;;;;4997218;28;93407;-70
2022/07/29 10:06:59;;;;;;;4.95;2.63;;;;;;;;;;4996186;28;93758;-70
2022/07/29 10:09:31;;;;;;;6.43;2.67;;;;;;;;;;4996807;28;93833;-70
2022/07/29 10:12:06;;;;;;;5.88;2.58;;;;;;;;;;4997573;28;92817;-69
2022/07/29 10:14:33;;;;;;;5.32;2.97;;;;;;;;;;4996250;28;92371;-70
2022/07/29 10:17:00;;;;;;;4.18;2.85;;;;;;;;;;4996218;28;93859;-69
2022/07/29 10:19:31;;;;;;;5.88;2.58;;;;;;;;;;4995346;28;95720;-70
2022/07/29 10:21:57;;;;;;;9.20;3.17;;;;;;;;;;4995988;28;93176;-70
2022/07/29 10:24:26;;;;;;;6.85;2.95;;;;;;;;;;4999686;28;92438;-70
2022/07/29 10:26:54;;;;;;;13.82;2.83;;;;;;;;;;4996057;28;92502;-70
2022/07/29 10:29:20;;;;;;;8.27;2.60;;;;;;;;;;4996618;28;93445;-69
2022/07/29 10:31:50;;;;;;;22.63;3.05;;;;;;;;;;4996403;28;93207;-70
2022/07/29 10:34:22;;;;;;;8.20;3.03;;;;;;;;;;4996241;28;92448;-70
2022/07/29 10:36:58;;;;;;;6.50;2.85;;;;;;;;;;4996990;28;93362;-70
2022/07/29 10:39:38;;;;;;;17.70;3.22;;;;;;;;;;4996438;28;93333;-70
2022/07/29 10:42:17;;;;;;;11.10;3.03;;;;;;;;;;4996186;28;92992;-70
2022/07/29 10:44:45;;;;;;;4.93;2.88;;;;;;;;;;4995404;28;94806;-70
2022/07/29 10:47:34;;;;;;;9.82;3.10;;;;;;;;;;4999930;28;93230;-71
2022/07/29 10:50:03;;;;;;;3.92;3.05;;;;;;;;;;4996507;28;92381;-70
2022/07/29 10:52:48;;;;;;;7.00;3.70;;;;;;;;;;4996233;28;93282;-70
2022/07/29 10:55:34;;;;;;;4.75;3.28;;;;;;;;;;4996036;28;93086;-71
2022/07/29 10:58:11;;;;;;;5.15;3.30;;;;;;;;;;4996148;28;93253;-70
2022/07/29 11:00:37;;;;;;;4.95;3.25;;;;;;;;;;4995562;28;93408;-70
2022/07/29 11:03:05;;;;;;;9.35;2.97;;;;;;;;;;4996323;28;91763;-71
2022/07/29 11:05:51;;;;;;;7.05;3.03;;;;;;;;;;4996246;28;92440;-71
2022/07/29 11:08:22;;;;;;;4.13;3.13;;;;;;;;;;4995667;28;93126;-71
2022/07/29 11:10:53;;;;;;;4.75;3.05;;;;;;;;;;4996601;28;94727;-71
2022/07/29 11:13:38;;;;;;;5.68;2.80;;;;;;;;;;4996519;28;93141;-71
2022/07/29 11:16:07;;;;;;;9.02;2.58;;;;;;;;;;4997519;27;92351;-70
2022/07/29 11:18:36;;;;;;;4.30;2.35;;;;;;;;;;4998479;28;92279;-69
2022/07/29 11:21:03;;;;;;;6.00;2.83;;;;;;;;;;4995849;28;94187;-70
2022/07/29 11:23:39;;;;;;;6.75;3.10;;;;;;;;;;4995662;28;92441;-70
2022/07/29 11:26:12;;;;;;;9.88;3.05;;;;;;;;;;4996334;28;93411;-70
2022/07/29 11:28:53;;;;;;;6.30;2.60;;;;;;;;;;4996420;28;92783;-69
2022/07/29 11:31:34;;;;;;;6.20;2.50;;;;;;;;;;4999425;27;92389;-70
2022/07/29 11:34:22;;;;;;;3.67;2.20;;;;;;;;;;4995647;28;93400;-70
2022/07/29 11:37:10;;;;;;;10.73;2.75;;;;;;;;;;4994526;28;94912;-70
2022/07/29 11:39:43;;;;;;;5.32;2.83;;;;;;;;;;4995251;28;94137;-69
2022/07/29 11:42:20;;;;;;;8.85;2.92;;;;;;;;;;4995142;28;93259;-70
2022/07/29 11:45:00;;;;;;;5.63;2.17;;;;;;;;;;4994855;28;92556;-69
2022/07/29 11:47:38;;;;;;;6.72;3.05;;;;;;;;;;4995739;28;92609;-69
2022/07/29 11:50:14;;;;;;;2.78;2.28;;;;;;;;;;4995372;28;93241;-69
2022/07/29 11:52:47;;;;;;;3.35;2.25;;;;;;;;;;4994760;28;92415;-69
2022/07/29 11:55:17;;;;;;;8.55;2.10;;;;;;;;;;4999051;28;92745;-69
2022/07/29 11:57:52;;;;;;;7.22;2.60;;;;;;;;;;4995354;28;92507;-69
2022/07/29 12:00:33;;;;;;;7.70;2.55;;;;;;;;;;4994910;28;92324;-69
2022/07/29 12:03:02;;;;;;;8.68;2.95;;;;;;;;;;4993491;28;97022;-69
2022/07/29 12:05:31;;;;;;;9.30;2.67;;;;;;;;;;4993972;28;92559;-70
2022/07/29 12:08:19;;;;;;;6.93;2.50;;;;;;;;;;4995599;28;92304;-70
2022/07/29 12:10:47;;;;;;;7.32;3.35;;;;;;;;;;4994653;28;93562;-70
2022/07/29 12:13:15;;;;;;;8.65;2.70;;;;;;;;;;4993687;28;92496;-71
2022/07/29 12:15:52;;;;;;;7.85;2.28;;;;;;;;;;4994854;28;92876;-70
2022/07/29 12:18:21;;;;;;;5.38;3.40;;;;;;;;;;4997990;28;93186;-71
2022/07/29 12:20:56;;;;;;;8.67;3.00;;;;;;;;;;4997975;28;93131;-70
2022/07/29 12:23:24;;;;;;;5.82;2.45;;;;;;;;;;4998700;28;93142;-70
2022/07/29 12:26:00;;;;;;;8.85;3.30;;;;;;;;;;4998680;28;92490;-70
2022/07/29 12:28:27;;;;;;;6.47;2.67;;;;;;;;;;4997799;27;94673;-70
2022/07/29 12:30:53;;;;;;;7.90;2.83;;;;;;;;;;4999040;27;93214;-70
2022/07/29 12:33:24;;;;;;;9.02;2.55;;;;;;;;;;4997077;28;92652;-70
2022/07/29 12:35:53;;;;;;;5.57;2.53;;;;;;;;;;4997197;28;92436;-70
2022/07/29 12:38:34;;;;;;;4.93;2.35;;;;;;;;;;4998086;28;92430;-70
2022/07/29 12:41:01;;;;;;;10.55;2.65;;;;;;;;;;5000592;28;92422;-70
2022/07/29 12:43:31;;;;;;;6.30;2.83;;;;;;;;;;4998482;28;93273;-70
2022/07/29 12:46:10;;;;;;;5.80;2.70;;;;;;;;;;4998429;28;91670;-70
2022/07/29 12:48:42;;;;;;;9.30;2.55;;;;;;;;;;4997527;28;92903;-70
2022/07/29 12:51:09;;;;;;;6.57;3.03;;;;;;;;;;4998025;28;94403;-70
2022/07/29 12:53:36;;;;;;;6.07;2.65;;;;;;;;;;4996553;28;94885;-70
2022/07/29 12:56:03;;;;;;;5.90;2.42;;;;;;;;;;4997373;28;95422;-70
2022/07/29 12:58:53;;;;;;;3.65;2.42;;;;;;;;;;4996425;28;93293;-69
2022/07/29 13:01:21;;;;;;;7.55;2.63;;;;;;;;;;4998567;28;92442;-70
2022/07/29 13:03:53;;;;;;;7.68;2.67;;;;;;;;;;5000329;28;92868;-70
2022/07/29 13:06:32;;;;;;;3.17;2.67;;;;;;;;;;4998211;28;93066;-70
2022/07/29 13:09:05;;;;;;;7.25;3.25;;;;;;;;;;4997411;28;94028;-69
2022/07/29 13:11:39;;;;;;;16.67;3.60;;;;;;;;;;4999485;28;91612;-70
2022/07/29 13:14:11;;;;;;;5.90;3.13;;;;;;;;;;4997930;28;92570;-70
2022/07/29 13:16:58;;;;;;;5.65;3.70;;;;;;;;;;4997415;28;93882;-70
2022/07/29 13:19:32;;;;;;;8.10;2.97;;;;;;;;;;4995694;28;95694;-70
2022/07/29 13:21:58;;;;;;;6.22;2.85;;;;;;;;;;4998331;28;92302;-70
2022/07/29 13:24:26;;;;;;;8.65;2.70;;;;;;;;;;4999956;28;93150;-71
2022/07/29 13:26:55;;;;;;;5.10;3.03;;;;;;;;;;4997953;28;94089;-70
2022/07/29 13:29:21;;;;;;;4.10;3.13;;;;;;;;;;4997788;28;92817;-70
2022/07/29 13:31:48;;;;;;;3.45;2.80;;;;;;;;;;4994873;28;94228;-70
2022/07/29 13:34:15;;;;;;;5.75;2.60;;;;;;;;;;4998280;28;92554;-70
2022/07/29 13:36:41;;;;;;;9.25;3.10;;;;;;;;;;4997916;28;91909;-70
2022/07/29 13:39:07;;;;;;;8.48;3.55;;;;;;;;;;4996557;28;93017;-70
2022/07/29 13:41:34;;;;;;;7.78;3.17;;;;;;;;;;4997697;28;92477;-71
2022/07/29 13:44:00;;;;;;;14.02;3.17;;;;;;;;;;4995867;28;95246;-70
2022/07/29 13:46:26;;;;;;;7.03;3.25;;;;;;;;;;5000831;28;93263;-71
2022/07/29 13:48:53;;;;;;;5.85;3.40;;;;;;;;;;4997523;28;93075;-71
2022/07/29 13:51:19;;;;;;;6.53;2.83;;;;;;;;;;4996804;28;92364;-71
2022/07/29 13:53:46;;;;;;;12.90;2.67;;;;;;;;;;4998474;28;92515;-70
2022/07/29 13:56:12;;;;;;;9.50;3.20;;;;;;;;;;4997624;28;93155;-71
2022/07/29 13:58:39;;;;;;;11.18;2.58;;;;;;;;;;4996514;28;93580;-70
2022/07/29 14:01:06;;;;;;;7.53;2.80;;;;;;;;;;4997855;28;92112;-70
2022/07/29 14:03:32;;;;;;;5.07;2.67;;;;;;;;;;4997330;28;93547;-70
2022/07/29 14:05:59;;;;;;;7.60;2.80;;;;;;;;;;4995774;28;95204;-70
2022/07/29 14:08:26;;;;;;;9.45;3.00;;;;;;;;;;4998504;28;95539;-71
2022/07/29 14:10:54;;;;;;;6.80;2.90;;;;;;;;;;4997187;28;94250;-71
2022/07/29 14:13:20;;;;;;;7.05;2.55;;;;;;;;;;4998134;27;92531;-70
2022/07/29 14:15:52;;;;;;;10.00;3.13;;;;;;;;;;4997536;28;93192;-70
2022/07/29 14:18:18;;;;;;;6.80;3.13;;;;;;;;;;4996722;28;92574;-70
2022/07/29 14:20:44;;;;;;;8.50;3.70;;;;;;;;;;4995466;28;92503;-70
2022/07/29 14:23:11;;;;;;;4.93;2.97;;;;;;;;;;4997539;28;92962;-70
2022/07/29 14:25:41;;;;;;;8.23;3.30;;;;;;;;;;4996868;28;92487;-70
2022/07/29 14:28:09;;;;;;;7.57;2.75;;;;;;;;;;4996182;28;92491;-70
2022/07/29 14:30:36;;;;;;;8.90;4.20;;;;;;;;;;5000229;28;93107;-70
2022/07/29 14:33:03;;;;;;;10.93;3.40;;;;;;;;;;4994456;28;94809;-70
2022/07/29 14:35:29;;;;;;;8.55;4.40;;;;;;;;;;4998205;27;95307;-70
2022/07/29 14:37:55;;;;;;;13.43;4.80;;;;;;;;;;4996955;28;93126;-71
2022/07/29 14:40:22;;;;;;;9.07;3.83;;;;;;;;;;4996627;28;92749;-71
2022/07/29 14:42:48;;;;;;;9.93;3.92;;;;;;;;;;4996562;28;94082;-70
2022/07/29 14:45:17;;;;;;;5.70;4.15;;;;;;;;;;4996345;28;93884;-70
2022/07/29 14:47:43;;;;;;;6.80;4.05;;;;;;;;;;4994887;28;92436;-70
2022/07/29 14:50:10;;;;;;;6.90;3.78;;;;;;;;;;4997684;28;93220;-70
2022/07/29 14:52:36;;;;;;;8.82;4.22;;;;;;;;;;4999885;28;93537;-70
2022/07/29 14:55:03;;;;;;;11.90;4.20;;;;;;;;;;4996085;28;93921;-70
2022/07/29 14:57:30;;;;;;;6.53;3.95;;;;;;;;;;4994665;28;95753;-70
2022/07/29 14:59:56;;;;;;;10.35;3.15;;;;;;;;;;4995822;28;92404;-71